sensor_id;sensor_type;location;lat;lon;timestamp;pressure;altitude;pressure_sealevel;temperature;humidity
62849;BME280;48941;49.516;8.286;2022-11-20T00:01:05;99983.09;;;2.67;100.00
62849;BME280;48941;49.516;8.286;2022-11-20T00:03:33;99983.03;;;2.69;100.00
62849;BME280;48941;49.516;8.286;2022-11-20T00:06:01;99982.88;;;2.72;100.00
62849;BME280;48941;49.516;8.286;2022-11-20T00:08:30;99989.41;;;2.81;100.00
62849;BME280;48941;49.516;8.286;2022-11-20T00:11:02;99975.34;;;2.82;100.00
62849;BME280;48941;49.516;8.286;2022-11-20T00:13:30;99977.03;;;2.83;100.00
62849;BME280;48941;49.516;8.286;2022-11-20T00:15:58;99976.63;;;2.90;100.00
62849;BME280;48941;49.516;8.286;2022-11-20T00:18:28;99980.00;;;2.92;100.00
62849;BME280;48941;49.516;8.286;2022-11-20T00:21:00;99970.59;;;2.88;100.00
62849;BME280;48941;49.516;8.286;2022-11-20T00:23:28;99975.09;;;2.86;100.00
62849;BME280;48941;49.516;8.286;2022-11-20T00:25:56;99973.72;;;2.79;100.00
62849;BME280;48941;49.516;8.286;2022-11-20T00:28:24;99975.25;;;2.83;100.00
62849;BME280;48941;49.516;8.286;2022-11-20T00:30:52;99969.06;;;2.84;100.00
62849;BME280;48941;49.516;8.286;2022-11-20T00:33:20;99974.47;;;2.81;100.00
62849;BME280;48941;49.516;8.286;2022-11-20T00:35:49;99980.69;;;2.80;100.00
62849;BME280;48941;49.516;8.286;2022-11-20T00:38:17;99984.16;;;2.81;100.00
62849;BME280;48941;49.516;8.286;2022-11-20T00:40:44;99987.41;;;2.86;100.00
62849;BME280;48941;49.516;8.286;2022-11-20T00:43:19;99986.72;;;2.82;100.00
62849;BME280;48941;49.516;8.286;2022-11-20T00:45:46;99987.53;;;2.83;100.00
62849;BME280;48941;49.516;8.286;2022-11-20T00:48:14;99999.78;;;2.84;100.00
62849;BME280;48941;49.516;8.286;2022-11-20T00:50:42;99986.63;;;2.84;100.00
62849;BME280;48941;49.516;8.286;2022-11-20T00:53:11;99984.91;;;2.83;100.00
62849;BME280;48941;49.516;8.286;2022-11-20T00:55:39;99990.19;;;2.83;100.00
62849;BME280;48941;49.516;8.286;2022-11-20T00:58:07;99984.16;;;2.81;100.00
62849;BME280;48941;49.516;8.286;2022-11-20T01:00:39;99990.25;;;2.81;100.00
62849;BME280;48941;49.516;8.286;2022-11-20T01:03:07;99988.38;;;2.83;100.00
62849;BME280;48941;49.516;8.286;2022-11-20T01:05:35;99983.75;;;2.88;100.00
62849;BME280;48941;49.516;8.286;2022-11-20T01:08:03;99986.44;;;2.87;100.00
62849;BME280;48941;49.516;8.286;2022-11-20T01:10:32;99970.75;;;2.85;100.00
62849;BME280;48941;49.516;8.286;2022-11-20T01:13:00;99987.47;;;2.84;100.00
62849;BME280;48941;49.516;8.286;2022-11-20T01:15:46;99985.88;;;2.82;100.00
62849;BME280;48941;49.516;8.286;2022-11-20T01:18:14;99984.00;;;2.84;100.00
62849;BME280;48941;49.516;8.286;2022-11-20T01:20:42;99977.72;;;2.86;100.00
62849;BME280;48941;49.516;8.286;2022-11-20T01:23:10;99969.81;;;2.86;100.00
62849;BME280;48941;49.516;8.286;2022-11-20T01:25:39;99965.59;;;2.84;100.00
62849;BME280;48941;49.516;8.286;2022-11-20T01:28:07;99962.78;;;2.87;100.00
62849;BME280;48941;49.516;8.286;2022-11-20T01:30:34;99966.25;;;2.87;100.00
62849;BME280;48941;49.516;8.286;2022-11-20T01:33:02;99960.22;;;2.85;100.00
62849;BME280;48941;49.516;8.286;2022-11-20T01:35:30;99967.44;;;2.82;100.00
62849;BME280;48941;49.516;8.286;2022-11-20T01:37:58;99970.25;;;2.78;100.00
62849;BME280;48941;49.516;8.286;2022-11-20T01:40:26;99964.63;;;2.85;100.00
62849;BME280;48941;49.516;8.286;2022-11-20T01:43:06;99973.13;;;2.90;100.00
62849;BME280;48941;49.516;8.286;2022-11-20T01:46:08;99950.81;;;2.97;100.00
62849;BME280;48941;49.516;8.286;2022-11-20T01:48:44;99951.00;;;2.94;100.00
62849;BME280;48941;49.516;8.286;2022-11-20T01:51:18;99951.97;;;2.91;100.00
62849;BME280;48941;49.516;8.286;2022-11-20T01:53:48;99951.16;;;2.91;100.00
62849;BME280;48941;49.516;8.286;2022-11-20T01:56:18;99949.47;;;2.90;100.00
62849;BME280;48941;49.516;8.286;2022-11-20T01:58:50;99946.72;;;2.91;100.00
62849;BME280;48941;49.516;8.286;2022-11-20T02:01:20;99948.59;;;2.89;100.00
62849;BME280;48941;49.516;8.286;2022-11-20T02:03:48;99958.97;;;2.92;100.00
62849;BME280;48941;49.516;8.286;2022-11-20T02:06:20;99954.63;;;2.91;100.00
62849;BME280;48941;49.516;8.286;2022-11-20T02:08:50;99959.03;;;2.91;100.00
62849;BME280;48941;49.516;8.286;2022-11-20T02:11:19;99949.53;;;2.88;100.00
62849;BME280;48941;49.516;8.286;2022-11-20T02:13:48;99945.19;;;2.87;100.00
62849;BME280;48941;49.516;8.286;2022-11-20T02:16:20;99948.69;;;2.88;100.00
62849;BME280;48941;49.516;8.286;2022-11-20T02:18:49;99960.97;;;2.87;100.00
62849;BME280;48941;49.516;8.286;2022-11-20T02:21:25;99956.59;;;2.88;100.00
62849;BME280;48941;49.516;8.286;2022-11-20T02:24:04;99954.72;;;2.90;100.00
62849;BME280;48941;49.516;8.286;2022-11-20T02:26:37;99950.22;;;2.92;100.00
62849;BME280;48941;49.516;8.286;2022-11-20T02:29:06;99947.81;;;2.87;100.00
62849;BME280;48941;49.516;8.286;2022-11-20T02:31:37;99949.63;;;2.87;100.00
62849;BME280;48941;49.516;8.286;2022-11-20T02:34:05;99948.84;;;2.85;100.00
62849;BME280;48941;49.516;8.286;2022-11-20T02:36:34;99945.19;;;2.87;100.00
62849;BME280;48941;49.516;8.286;2022-11-20T02:39:04;99941.47;;;2.91;100.00
62849;BME280;48941;49.516;8.286;2022-11-20T02:41:34;99934.53;;;2.90;100.00
62849;BME280;48941;49.516;8.286;2022-11-20T02:44:03;99933.41;;;2.94;100.00
62849;BME280;48941;49.516;8.286;2022-11-20T02:46:31;99935.97;;;2.96;100.00
62849;BME280;48941;49.516;8.286;2022-11-20T02:49:00;99931.28;;;3.01;100.00
62849;BME280;48941;49.516;8.286;2022-11-20T02:51:29;99933.22;;;2.97;100.00
62849;BME280;48941;49.516;8.286;2022-11-20T02:53:56;99935.28;;;3.08;100.00
62849;BME280;48941;49.516;8.286;2022-11-20T02:56:26;99928.91;;;3.12;100.00
62849;BME280;48941;49.516;8.286;2022-11-20T02:58:54;99926.84;;;3.17;100.00
62849;BME280;48941;49.516;8.286;2022-11-20T03:01:22;99932.91;;;3.19;100.00
62849;BME280;48941;49.516;8.286;2022-11-20T03:03:50;99931.03;;;3.22;100.00
62849;BME280;48941;49.516;8.286;2022-11-20T03:06:20;99927.44;;;3.23;100.00
62849;BME280;48941;49.516;8.286;2022-11-20T03:08:49;99930.00;;;3.24;100.00
62849;BME280;48941;49.516;8.286;2022-11-20T03:11:17;99927.34;;;3.24;100.00
62849;BME280;48941;49.516;8.286;2022-11-20T03:13:46;99929.78;;;3.27;100.00
62849;BME280;48941;49.516;8.286;2022-11-20T03:16:16;99930.66;;;3.28;100.00
62849;BME280;48941;49.516;8.286;2022-11-20T03:18:44;99936.09;;;3.25;100.00
62849;BME280;48941;49.516;8.286;2022-11-20T03:21:13;99927.53;;;3.21;100.00
62849;BME280;48941;49.516;8.286;2022-11-20T03:23:41;99929.91;;;3.26;100.00
62849;BME280;48941;49.516;8.286;2022-11-20T03:26:11;99927.16;;;3.27;100.00
62849;BME280;48941;49.516;8.286;2022-11-20T03:28:39;99921.75;;;3.30;100.00
62849;BME280;48941;49.516;8.286;2022-11-20T03:31:10;99919.94;;;3.31;100.00
62849;BME280;48941;49.516;8.286;2022-11-20T03:33:39;99927.09;;;3.29;100.00
62849;BME280;48941;49.516;8.286;2022-11-20T03:36:10;99920.97;;;3.28;100.00
62849;BME280;48941;49.516;8.286;2022-11-20T03:38:39;99909.63;;;3.28;100.00
62849;BME280;48941;49.516;8.286;2022-11-20T03:41:08;99908.75;;;3.27;100.00
62849;BME280;48941;49.516;8.286;2022-11-20T03:43:36;99900.97;;;3.26;100.00
62849;BME280;48941;49.516;8.286;2022-11-20T03:46:05;99905.53;;;3.22;100.00
62849;BME280;48941;49.516;8.286;2022-11-20T03:48:34;99897.44;;;3.25;100.00
62849;BME280;48941;49.516;8.286;2022-11-20T03:51:10;99905.34;;;3.25;100.00
62849;BME280;48941;49.516;8.286;2022-11-20T03:53:38;99911.72;;;3.21;100.00
62849;BME280;48941;49.516;8.286;2022-11-20T03:56:07;99916.00;;;3.24;100.00
62849;BME280;48941;49.516;8.286;2022-11-20T03:58:36;99916.00;;;3.24;100.00
62849;BME280;48941;49.516;8.286;2022-11-20T04:01:07;99923.22;;;3.20;100.00
62849;BME280;48941;49.516;8.286;2022-11-20T04:03:38;99926.94;;;3.16;100.00
62849;BME280;48941;49.516;8.286;2022-11-20T04:06:08;99922.53;;;3.16;100.00
62849;BME280;48941;49.516;8.286;2022-11-20T04:08:36;99915.38;;;3.18;100.00
62849;BME280;48941;49.516;8.286;2022-11-20T04:11:09;99918.94;;;3.17;100.00
62849;BME280;48941;49.516;8.286;2022-11-20T04:13:37;99920.81;;;3.15;100.00
62849;BME280;48941;49.516;8.286;2022-11-20T04:16:06;99916.59;;;3.13;100.00
62849;BME280;48941;49.516;8.286;2022-11-20T04:18:34;99920.31;;;3.09;100.00
62849;BME280;48941;49.516;8.286;2022-11-20T04:21:04;99915.16;;;3.07;100.00
62849;BME280;48941;49.516;8.286;2022-11-20T04:23:32;99916.78;;;3.10;100.00
62849;BME280;48941;49.516;8.286;2022-11-20T04:26:01;99913.94;;;3.13;100.00
62849;BME280;48941;49.516;8.286;2022-11-20T04:28:29;99908.13;;;3.08;100.00
62849;BME280;48941;49.516;8.286;2022-11-20T04:31:05;99906.13;;;3.11;100.00
62849;BME280;48941;49.516;8.286;2022-11-20T04:33:33;99911.31;;;3.13;100.00
62849;BME280;48941;49.516;8.286;2022-11-20T04:36:04;99904.88;;;3.18;100.00
62849;BME280;48941;49.516;8.286;2022-11-20T04:38:32;99904.94;;;3.17;100.00
62849;BME280;48941;49.516;8.286;2022-11-20T04:41:02;99895.25;;;3.17;100.00
62849;BME280;48941;49.516;8.286;2022-11-20T04:43:31;99894.78;;;3.11;100.00
62849;BME280;48941;49.516;8.286;2022-11-20T04:45:59;99894.78;;;3.11;100.00
62849;BME280;48941;49.516;8.286;2022-11-20T04:48:29;99896.56;;;3.10;100.00
62849;BME280;48941;49.516;8.286;2022-11-20T04:50:57;99890.34;;;3.11;100.00
62849;BME280;48941;49.516;8.286;2022-11-20T04:53:26;99893.75;;;3.13;100.00
62849;BME280;48941;49.516;8.286;2022-11-20T04:55:59;99888.41;;;3.15;100.00
62849;BME280;48941;49.516;8.286;2022-11-20T04:58:28;99884.09;;;3.14;100.00
62849;BME280;48941;49.516;8.286;2022-11-20T05:01:00;99886.72;;;3.14;100.00
62849;BME280;48941;49.516;8.286;2022-11-20T05:03:28;99889.16;;;3.17;100.00
62849;BME280;48941;49.516;8.286;2022-11-20T05:05:56;99883.88;;;3.17;100.00
62849;BME280;48941;49.516;8.286;2022-11-20T05:08:28;99887.56;;;3.14;100.00
62849;BME280;48941;49.516;8.286;2022-11-20T05:11:00;99890.19;;;3.14;100.00
62849;BME280;48941;49.516;8.286;2022-11-20T05:13:28;99888.41;;;3.15;100.00
62849;BME280;48941;49.516;8.286;2022-11-20T05:15:55;99883.97;;;3.15;100.00
62849;BME280;48941;49.516;8.286;2022-11-20T05:18:28;99880.06;;;3.23;100.00
62849;BME280;48941;49.516;8.286;2022-11-20T05:20:56;99878.88;;;3.28;100.00
62849;BME280;48941;49.516;8.286;2022-11-20T05:23:24;99874.53;;;3.27;100.00
62849;BME280;48941;49.516;8.286;2022-11-20T05:25:55;99881.59;;;3.27;100.00
62849;BME280;48941;49.516;8.286;2022-11-20T05:28:25;99881.78;;;3.24;100.00
62849;BME280;48941;49.516;8.286;2022-11-20T05:30:53;99877.34;;;3.24;100.00
62849;BME280;48941;49.516;8.286;2022-11-20T05:33:22;99876.50;;;3.24;100.00
62849;BME280;48941;49.516;8.286;2022-11-20T05:35:49;99883.09;;;3.31;100.00
62849;BME280;48941;49.516;8.286;2022-11-20T05:38:17;99879.44;;;3.33;100.00
62849;BME280;48941;49.516;8.286;2022-11-20T05:40:45;99875.03;;;3.34;100.00
62849;BME280;48941;49.516;8.286;2022-11-20T05:43:14;99869.84;;;3.32;100.00
62849;BME280;48941;49.516;8.286;2022-11-20T05:45:41;99878.66;;;3.31;100.00
62849;BME280;48941;49.516;8.286;2022-11-20T05:48:11;99868.91;;;3.33;100.00
62849;BME280;48941;49.516;8.286;2022-11-20T05:50:39;99868.13;;;3.31;100.00
62849;BME280;48941;49.516;8.286;2022-11-20T05:53:07;99866.47;;;3.30;100.00
62849;BME280;48941;49.516;8.286;2022-11-20T05:55:34;99865.13;;;3.23;100.00
62849;BME280;48941;49.516;8.286;2022-11-20T05:58:02;99860.88;;;3.21;100.00
62849;BME280;48941;49.516;8.286;2022-11-20T06:00:31;99868.94;;;3.17;100.00
62849;BME280;48941;49.516;8.286;2022-11-20T06:02:59;99860.41;;;3.14;100.00
62849;BME280;48941;49.516;8.286;2022-11-20T06:05:27;99872.69;;;3.13;100.00
62849;BME280;48941;49.516;8.286;2022-11-20T06:07:54;99868.38;;;3.12;100.00
62849;BME280;48941;49.516;8.286;2022-11-20T06:10:22;99872.59;;;3.15;100.00
62849;BME280;48941;49.516;8.286;2022-11-20T06:12:50;99869.06;;;3.16;100.00
62849;BME280;48941;49.516;8.286;2022-11-20T06:15:18;99869.13;;;3.14;100.00
62849;BME280;48941;49.516;8.286;2022-11-20T06:17:47;99865.91;;;3.09;100.00
62849;BME280;48941;49.516;8.286;2022-11-20T06:20:14;99868.28;;;3.14;100.00
62849;BME280;48941;49.516;8.286;2022-11-20T06:22:42;99864.47;;;3.19;100.00
62849;BME280;48941;49.516;8.286;2022-11-20T06:25:10;99866.91;;;3.23;100.00
62849;BME280;48941;49.516;8.286;2022-11-20T06:27:37;99869.72;;;3.19;100.00
62849;BME280;48941;49.516;8.286;2022-11-20T06:30:06;99870.66;;;3.18;100.00
62849;BME280;48941;49.516;8.286;2022-11-20T06:32:34;99867.84;;;3.22;100.00
62849;BME280;48941;49.516;8.286;2022-11-20T06:35:04;99871.25;;;3.24;100.00
62849;BME280;48941;49.516;8.286;2022-11-20T06:37:32;99870.00;;;3.29;100.00
62849;BME280;48941;49.516;8.286;2022-11-20T06:39:59;99868.34;;;3.28;100.00
62849;BME280;48941;49.516;8.286;2022-11-20T06:42:27;99866.81;;;3.24;100.00
62849;BME280;48941;49.516;8.286;2022-11-20T06:44:55;99868.84;;;3.19;100.00
62849;BME280;48941;49.516;8.286;2022-11-20T06:47:23;99869.72;;;3.19;100.00
62849;BME280;48941;49.516;8.286;2022-11-20T06:49:51;99877.63;;;3.19;100.00
62849;BME280;48941;49.516;8.286;2022-11-20T06:52:20;99876.59;;;3.22;100.00
62849;BME280;48941;49.516;8.286;2022-11-20T06:54:48;99886.00;;;3.26;100.00
62849;BME280;48941;49.516;8.286;2022-11-20T06:57:15;99877.34;;;3.24;100.00
62849;BME280;48941;49.516;8.286;2022-11-20T06:59:44;99876.50;;;3.24;100.00
62849;BME280;48941;49.516;8.286;2022-11-20T07:02:12;99879.13;;;3.24;100.00
62849;BME280;48941;49.516;8.286;2022-11-20T07:04:39;99879.97;;;3.24;100.00
62849;BME280;48941;49.516;8.286;2022-11-20T07:07:08;99879.03;;;3.25;100.00
62849;BME280;48941;49.516;8.286;2022-11-20T07:09:37;99887.88;;;3.24;100.00
62849;BME280;48941;49.516;8.286;2022-11-20T07:12:05;99882.53;;;3.26;100.00
62849;BME280;48941;49.516;8.286;2022-11-20T07:14:33;99887.88;;;3.24;100.00
62849;BME280;48941;49.516;8.286;2022-11-20T07:17:01;99892.03;;;3.28;100.00
62849;BME280;48941;49.516;8.286;2022-11-20T07:19:29;99884.13;;;3.28;100.00
62849;BME280;48941;49.516;8.286;2022-11-20T07:21:57;99886.84;;;3.27;100.00
62849;BME280;48941;49.516;8.286;2022-11-20T07:24:25;99887.59;;;3.29;100.00
62849;BME280;48941;49.516;8.286;2022-11-20T07:26:54;99886.47;;;3.33;100.00
62849;BME280;48941;49.516;8.286;2022-11-20T07:29:22;99893.25;;;3.37;100.00
62849;BME280;48941;49.516;8.286;2022-11-20T07:31:49;99888.75;;;3.39;100.00
62849;BME280;48941;49.516;8.286;2022-11-20T07:34:17;99889.50;;;3.41;100.00
62849;BME280;48941;49.516;8.286;2022-11-20T07:36:46;99893.94;;;3.41;100.00
62849;BME280;48941;49.516;8.286;2022-11-20T07:39:13;99891.97;;;3.44;100.00
62849;BME280;48941;49.516;8.286;2022-11-20T07:41:42;99889.91;;;3.49;100.00
62849;BME280;48941;49.516;8.286;2022-11-20T07:44:11;99893.41;;;3.50;100.00
62849;BME280;48941;49.516;8.286;2022-11-20T07:46:39;99899.53;;;3.50;100.00
62849;BME280;48941;49.516;8.286;2022-11-20T07:49:07;99892.38;;;3.52;100.00
62849;BME280;48941;49.516;8.286;2022-11-20T07:51:34;99892.19;;;3.55;100.00
62849;BME280;48941;49.516;8.286;2022-11-20T07:54:02;99896.53;;;3.56;100.00
62849;BME280;48941;49.516;8.286;2022-11-20T07:56:30;99891.34;;;3.55;100.00
62849;BME280;48941;49.516;8.286;2022-11-20T07:58:58;99893.06;;;3.56;100.00
62849;BME280;48941;49.516;8.286;2022-11-20T08:01:27;99905.09;;;3.60;100.00
62849;BME280;48941;49.516;8.286;2022-11-20T08:03:55;99901.63;;;3.59;100.00
62849;BME280;48941;49.516;8.286;2022-11-20T08:06:22;99902.25;;;3.63;100.00
62849;BME280;48941;49.516;8.286;2022-11-20T08:08:51;99909.41;;;3.61;100.00
62849;BME280;48941;49.516;8.286;2022-11-20T08:11:18;99913.66;;;3.64;100.00
62849;BME280;48941;49.516;8.286;2022-11-20T08:14:04;99914.44;;;3.66;100.00
62849;BME280;48941;49.516;8.286;2022-11-20T08:16:44;99918.75;;;3.67;100.00
62849;BME280;48941;49.516;8.286;2022-11-20T08:19:13;99918.56;;;3.70;100.00
62849;BME280;48941;49.516;8.286;2022-11-20T08:21:41;99918.47;;;3.71;100.00
62849;BME280;48941;49.516;8.286;2022-11-20T08:24:09;99930.72;;;3.72;100.00
62849;BME280;48941;49.516;8.286;2022-11-20T08:26:38;99935.03;;;3.73;100.00
62849;BME280;48941;49.516;8.286;2022-11-20T08:29:06;99934.94;;;3.75;100.00
62849;BME280;48941;49.516;8.286;2022-11-20T08:31:34;99937.50;;;3.76;100.00
62849;BME280;48941;49.516;8.286;2022-11-20T08:34:04;99929.59;;;3.76;100.00
62849;BME280;48941;49.516;8.286;2022-11-20T08:36:35;99937.56;;;3.75;100.00
62849;BME280;48941;49.516;8.286;2022-11-20T08:39:03;99934.09;;;3.74;100.00
62849;BME280;48941;49.516;8.286;2022-11-20T08:41:31;99942.09;;;3.73;100.00
62849;BME280;48941;49.516;8.286;2022-11-20T08:44:01;99939.38;;;3.74;100.00
62849;BME280;48941;49.516;8.286;2022-11-20T08:46:32;99947.19;;;3.76;100.00
62849;BME280;48941;49.516;8.286;2022-11-20T08:49:00;99952.63;;;3.73;100.00
62849;BME280;48941;49.516;8.286;2022-11-20T08:51:31;99951.69;;;3.74;100.00
62849;BME280;48941;49.516;8.286;2022-11-20T08:53:59;99954.13;;;3.77;100.00
62849;BME280;48941;49.516;8.286;2022-11-20T08:56:27;99952.25;;;3.79;100.00
62849;BME280;48941;49.516;8.286;2022-11-20T08:58:55;99954.81;;;3.81;100.00
62849;BME280;48941;49.516;8.286;2022-11-20T09:01:43;99955.75;;;3.79;100.00
62849;BME280;48941;49.516;8.286;2022-11-20T09:04:10;99962.72;;;3.81;100.00
62849;BME280;48941;49.516;8.286;2022-11-20T09:06:42;99959.03;;;3.83;100.00
62849;BME280;48941;49.516;8.286;2022-11-20T09:09:09;99952.09;;;3.82;100.00
62849;BME280;48941;49.516;8.286;2022-11-20T09:11:37;99966.78;;;3.86;100.00
62849;BME280;48941;49.516;8.286;2022-11-20T09:14:05;99951.88;;;3.85;100.00
62849;BME280;48941;49.516;8.286;2022-11-20T09:16:33;99954.44;;;3.87;100.00
62849;BME280;48941;49.516;8.286;2022-11-20T09:19:00;99949.00;;;3.90;100.00
62849;BME280;48941;49.516;8.286;2022-11-20T09:21:50;99954.00;;;3.94;100.00
62849;BME280;48941;49.516;8.286;2022-11-20T09:24:24;99955.88;;;3.92;100.00
62849;BME280;48941;49.516;8.286;2022-11-20T09:26:52;99956.63;;;3.94;100.00
62849;BME280;48941;49.516;8.286;2022-11-20T09:29:20;99967.34;;;3.91;100.00
62849;BME280;48941;49.516;8.286;2022-11-20T09:31:48;99966.25;;;3.95;100.00
62849;BME280;48941;49.516;8.286;2022-11-20T09:34:16;99967.09;;;3.96;100.00
62849;BME280;48941;49.516;8.286;2022-11-20T09:36:44;99973.09;;;3.98;100.00
62849;BME280;48941;49.516;8.286;2022-11-20T09:39:13;99963.31;;;4.00;100.00
62849;BME280;48941;49.516;8.286;2022-11-20T09:42:21;99966.88;;;3.99;100.00
62849;BME280;48941;49.516;8.286;2022-11-20T09:45:09;99972.06;;;4.01;100.00
62849;BME280;48941;49.516;8.286;2022-11-20T09:47:49;99962.28;;;4.03;100.00
62849;BME280;48941;49.516;8.286;2022-11-20T09:50:26;99964.00;;;4.04;100.00
62849;BME280;48941;49.516;8.286;2022-11-20T09:53:08;99962.94;;;4.06;100.00
62849;BME280;48941;49.516;8.286;2022-11-20T09:55:40;99971.53;;;4.10;100.00
62849;BME280;48941;49.516;8.286;2022-11-20T09:58:18;99972.38;;;4.10;100.00
62849;BME280;48941;49.516;8.286;2022-11-20T10:00:49;99954.97;;;4.08;100.00
62849;BME280;48941;49.516;8.286;2022-11-20T10:03:29;99963.88;;;4.05;100.00
62849;BME280;48941;49.516;8.286;2022-11-20T10:06:05;99954.97;;;4.08;100.00
62849;BME280;48941;49.516;8.286;2022-11-20T10:08:40;99962.59;;;4.12;100.00
62849;BME280;48941;49.516;8.286;2022-11-20T10:11:15;99969.19;;;4.19;100.00
62849;BME280;48941;49.516;8.286;2022-11-20T10:13:52;99962.59;;;4.27;100.00
62849;BME280;48941;49.516;8.286;2022-11-20T10:16:32;99961.28;;;4.34;100.00
62849;BME280;48941;49.516;8.286;2022-11-20T10:19:20;99961.38;;;4.32;100.00
62849;BME280;48941;49.516;8.286;2022-11-20T10:21:57;99955.72;;;4.38;100.00
62849;BME280;48941;49.516;8.286;2022-11-20T10:24:41;99959.31;;;4.37;100.00
62849;BME280;48941;49.516;8.286;2022-11-20T10:27:28;99958.56;;;4.35;100.00
62849;BME280;48941;49.516;8.286;2022-11-20T10:30:00;99953.28;;;4.35;100.00
62849;BME280;48941;49.516;8.286;2022-11-20T10:32:33;99952.25;;;4.38;100.00
62849;BME280;48941;49.516;8.286;2022-11-20T10:35:09;99947.91;;;4.37;100.00
62849;BME280;48941;49.516;8.286;2022-11-20T10:37:43;99937.19;;;4.40;100.00
62849;BME280;48941;49.516;8.286;2022-11-20T10:40:20;99934.63;;;4.38;100.00
62849;BME280;48941;49.516;8.286;2022-11-20T10:42:52;99937.72;;;4.45;100.00
62849;BME280;48941;49.516;8.286;2022-11-20T10:45:32;99936.41;;;4.52;100.00
62849;BME280;48941;49.516;8.286;2022-11-20T10:48:11;99930.00;;;4.56;100.00
62849;BME280;48941;49.516;8.286;2022-11-20T10:50:48;99932.34;;;4.61;100.00
62849;BME280;48941;49.516;8.286;2022-11-20T10:53:29;99935.63;;;4.65;100.00
62849;BME280;48941;49.516;8.286;2022-11-20T10:56:05;99927.16;;;4.74;100.00
62849;BME280;48941;49.516;8.286;2022-11-20T10:58:42;99924.97;;;4.81;100.00
62849;BME280;48941;49.516;8.286;2022-11-20T11:01:15;99932.22;;;4.91;100.00
62849;BME280;48941;49.516;8.286;2022-11-20T11:03:43;99921.72;;;5.04;100.00
62849;BME280;48941;49.516;8.286;2022-11-20T11:06:17;99921.66;;;5.18;100.00
62849;BME280;48941;49.516;8.286;2022-11-20T11:08:50;99918.00;;;5.34;100.00
62849;BME280;48941;49.516;8.286;2022-11-20T11:11:21;99902.31;;;5.45;100.00
62849;BME280;48941;49.516;8.286;2022-11-20T11:13:51;99909.75;;;5.66;100.00
62849;BME280;48941;49.516;8.286;2022-11-20T11:16:21;99915.56;;;5.84;100.00
62849;BME280;48941;49.516;8.286;2022-11-20T11:18:49;99898.28;;;6.05;100.00
62849;BME280;48941;49.516;8.286;2022-11-20T11:21:24;99897.13;;;6.09;100.00
62849;BME280;48941;49.516;8.286;2022-11-20T11:24:00;99899.75;;;6.22;100.00
62849;BME280;48941;49.516;8.286;2022-11-20T11:26:56;99904.84;;;6.25;100.00
62849;BME280;48941;49.516;8.286;2022-11-20T11:29:32;99886.16;;;6.52;100.00
62849;BME280;48941;49.516;8.286;2022-11-20T11:32:05;99884.31;;;6.66;100.00
62849;BME280;48941;49.516;8.286;2022-11-20T11:34:33;99885.44;;;6.87;100.00
62849;BME280;48941;49.516;8.286;2022-11-20T11:37:02;99873.22;;;7.09;100.00
62849;BME280;48941;49.516;8.286;2022-11-20T11:39:32;99872.72;;;7.28;99.82
62849;BME280;48941;49.516;8.286;2022-11-20T11:42:01;99870.59;;;7.33;100.00
62849;BME280;48941;49.516;8.286;2022-11-20T11:44:33;99870.66;;;7.55;100.00
62849;BME280;48941;49.516;8.286;2022-11-20T11:47:23;99867.91;;;7.68;100.00
62849;BME280;48941;49.516;8.286;2022-11-20T11:50:01;99863.31;;;7.70;99.65
62849;BME280;48941;49.516;8.286;2022-11-20T11:52:31;99863.25;;;7.94;98.33
62849;BME280;48941;49.516;8.286;2022-11-20T11:55:02;99851.81;;;8.16;98.30
62849;BME280;48941;49.516;8.286;2022-11-20T11:57:41;99857.13;;;8.50;97.57
62849;BME280;48941;49.516;8.286;2022-11-20T12:00:15;99853.56;;;8.72;96.28
62849;BME280;48941;49.516;8.286;2022-11-20T12:02:54;99850.59;;;8.66;96.25
62849;BME280;48941;49.516;8.286;2022-11-20T12:05:27;99848.53;;;8.58;96.08
62849;BME280;48941;49.516;8.286;2022-11-20T12:07:58;99845.56;;;8.51;94.65
62849;BME280;48941;49.516;8.286;2022-11-20T12:10:41;99843.13;;;8.37;96.47
62849;BME280;48941;49.516;8.286;2022-11-20T12:13:20;99851.59;;;8.31;96.92
62849;BME280;48941;49.516;8.286;2022-11-20T12:15:51;99846.72;;;8.25;96.71
62849;BME280;48941;49.516;8.286;2022-11-20T12:18:20;99846.50;;;8.28;96.76
62849;BME280;48941;49.516;8.286;2022-11-20T12:21:00;99843.97;;;8.26;95.53
62849;BME280;48941;49.516;8.286;2022-11-20T12:23:38;99844.06;;;8.25;95.34
62849;BME280;48941;49.516;8.286;2022-11-20T12:26:15;99841.56;;;8.23;97.02
62849;BME280;48941;49.516;8.286;2022-11-20T12:28:59;99840.84;;;8.21;96.79
62849;BME280;48941;49.516;8.286;2022-11-20T12:31:51;99843.50;;;8.21;97.46
62849;BME280;48941;49.516;8.286;2022-11-20T12:37:25;99838.31;;;8.20;97.14
62849;BME280;48941;49.516;8.286;2022-11-20T12:40:02;99824.44;;;8.16;99.64
62849;BME280;48941;49.516;8.286;2022-11-20T12:42:46;99834.94;;;8.17;98.33
62849;BME280;48941;49.516;8.286;2022-11-20T12:45:50;99835.88;;;8.16;98.25
62849;BME280;48941;49.516;8.286;2022-11-20T12:48:38;99827.69;;;8.20;97.85
62849;BME280;48941;49.516;8.286;2022-11-20T12:51:43;99818.75;;;8.21;97.28
62849;BME280;48941;49.516;8.286;2022-11-20T12:54:46;99814.31;;;8.21;96.80
62849;BME280;48941;49.516;8.286;2022-11-20T12:57:24;99818.75;;;8.32;92.57
62849;BME280;48941;49.516;8.286;2022-11-20T13:00:06;99813.94;;;8.37;89.67
62849;BME280;48941;49.516;8.286;2022-11-20T13:02:41;99818.38;;;8.36;89.68
62849;BME280;48941;49.516;8.286;2022-11-20T13:05:19;99813.59;;;8.42;89.62
62849;BME280;48941;49.516;8.286;2022-11-20T13:07:52;99816.00;;;8.45;90.10
62849;BME280;48941;49.516;8.286;2022-11-20T13:10:29;99809.34;;;8.50;89.55
62849;BME280;48941;49.516;8.286;2022-11-20T13:13:04;99809.00;;;8.55;89.11
62849;BME280;48941;49.516;8.286;2022-11-20T13:15:44;99809.31;;;8.62;89.04
62849;BME280;48941;49.516;8.286;2022-11-20T13:18:16;99804.50;;;8.67;88.71
62849;BME280;48941;49.516;8.286;2022-11-20T13:20:46;99802.41;;;8.70;88.26
62849;BME280;48941;49.516;8.286;2022-11-20T13:23:23;99801.34;;;8.73;87.66
62849;BME280;48941;49.516;8.286;2022-11-20T13:26:02;99791.28;;;8.76;87.44
62849;BME280;48941;49.516;8.286;2022-11-20T13:28:31;99791.16;;;8.78;88.37